createdAt,value
2018-02-01T00:00:28.255Z,5.14
2018-02-01T00:01:28.233Z,5.16
2018-02-01T00:02:28.207Z,5.16
2018-02-01T00:03:28.201Z,5.19
2018-02-01T00:04:28.166Z,5.12
2018-02-01T00:05:28.150Z,5.22
2018-02-01T00:06:28.122Z,5.22
2018-02-01T00:07:28.110Z,5.20
2018-02-01T00:08:28.094Z,5.07
2018-02-01T00:09:28.064Z,5.19
2018-02-01T00:10:28.049Z,5.17
2018-02-01T00:11:28.027Z,5.09
2018-02-01T00:12:28.011Z,5.05
2018-02-01T00:13:27.994Z,5.07
2018-02-01T00:14:27.969Z,5.12
2018-02-01T00:15:27.947Z,5.10
2018-02-01T00:16:27.924Z,5.01
2018-02-01T00:17:27.913Z,5.05
2018-02-01T00:18:27.896Z,5.04
2018-02-01T00:19:27.887Z,5.02
2018-02-01T00:20:27.868Z,5.02
2018-02-01T00:21:27.832Z,5.01
2018-02-01T00:22:27.813Z,5.01
2018-02-01T00:23:27.788Z,5.01
2018-02-01T00:24:27.775Z,5.02
2018-02-01T00:25:27.759Z,4.94
2018-02-01T00:26:27.736Z,4.88
2018-02-01T00:27:27.717Z,4.96
2018-02-01T00:28:27.692Z,4.92
2018-02-01T00:29:27.665Z,4.95
2018-02-01T00:30:27.655Z,4.95
2018-02-01T00:31:27.620Z,4.99
2018-02-01T00:32:27.620Z,4.91
2018-02-01T00:33:27.585Z,4.95
2018-02-01T00:34:27.569Z,4.99
2018-02-01T00:35:27.569Z,4.99
2018-02-01T00:36:27.522Z,4.98
2018-02-01T00:37:27.501Z,4.99
2018-02-01T00:38:27.497Z,4.95
2018-02-01T00:39:27.465Z,4.89
2018-02-01T00:40:27.446Z,4.88
2018-02-01T00:41:27.417Z,4.88
2018-02-01T00:42:27.395Z,4.94
2018-02-01T00:43:27.383Z,4.91
2018-02-01T00:44:27.362Z,4.92
2018-02-01T00:45:27.347Z,4.91
2018-02-01T00:46:27.321Z,4.91
2018-02-01T00:47:27.296Z,4.88
2018-02-01T00:48:27.283Z,4.94
2018-02-01T00:49:27.272Z,4.88
2018-02-01T00:50:27.235Z,4.83
2018-02-01T00:51:27.218Z,4.79
2018-02-01T00:52:27.212Z,4.88
2018-02-01T00:53:27.190Z,4.75
2018-02-01T00:54:27.155Z,4.83
2018-02-01T00:55:27.136Z,4.72
2018-02-01T00:56:27.126Z,4.79
2018-02-01T00:57:27.103Z,4.76
2018-02-01T00:58:27.081Z,4.79
2018-02-01T00:59:27.055Z,4.79
2018-02-01T01:00:27.039Z,4.83
2018-02-01T01:01:27.014Z,4.80
2018-02-01T01:02:26.995Z,4.84
2018-02-01T01:03:26.979Z,4.83
2018-02-01T01:04:26.965Z,4.86
2018-02-01T01:05:26.943Z,4.79
2018-02-01T01:06:26.927Z,4.73
2018-02-01T01:07:26.901Z,4.75
2018-02-01T01:08:26.881Z,4.76
2018-02-01T01:09:26.859Z,4.72
2018-02-01T01:10:26.840Z,4.77
2018-02-01T01:11:26.815Z,4.79
2018-02-01T01:12:26.811Z,4.77
2018-02-01T01:13:26.779Z,4.75
2018-02-01T01:14:26.767Z,4.73
2018-02-01T01:15:26.750Z,4.62
2018-02-01T01:16:26.719Z,4.64
2018-02-01T01:17:26.701Z,4.64
2018-02-01T01:18:26.678Z,4.64
2018-02-01T01:19:26.682Z,4.69
2018-02-01T01:20:26.640Z,4.64
2018-02-01T01:21:26.617Z,4.67
2018-02-01T01:22:26.608Z,4.70
2018-02-01T01:23:26.576Z,4.62
2018-02-01T01:24:26.576Z,4.61
2018-02-01T01:25:26.553Z,4.59
2018-02-01T01:26:26.522Z,4.59
2018-02-01T01:27:26.509Z,4.61
2018-02-01T01:28:26.477Z,4.62
2018-02-01T01:29:26.492Z,4.64
2018-02-01T01:30:26.439Z,4.57
2018-02-01T01:31:26.416Z,4.62
2018-02-01T01:32:26.397Z,4.59
2018-02-01T01:33:26.375Z,4.50
2018-02-01T01:34:26.365Z,4.51
2018-02-01T01:35:26.339Z,4.50
2018-02-01T01:36:26.321Z,4.59
2018-02-01T01:37:26.302Z,4.51
2018-02-01T01:38:26.289Z,4.54
2018-02-01T01:39:26.253Z,4.52
2018-02-01T01:40:26.241Z,4.46
2018-02-01T01:41:26.212Z,4.50
2018-02-01T01:42:26.196Z,4.36
2018-02-01T01:43:26.170Z,4.33
2018-02-01T01:44:26.158Z,4.37
2018-02-01T01:45:26.132Z,4.32
2018-02-01T01:46:26.108Z,4.33
2018-02-01T01:47:26.091Z,4.39
2018-02-01T01:48:26.082Z,4.36
2018-02-01T01:49:26.069Z,4.32
2018-02-01T01:50:26.025Z,4.26
2018-02-01T01:51:26.016Z,4.26
2018-02-01T01:52:25.983Z,4.33
2018-02-01T01:53:25.973Z,4.28
2018-02-01T01:54:25.971Z,4.26
2018-02-01T01:55:25.925Z,4.32
2018-02-01T01:56:25.910Z,4.29
2018-02-01T01:57:25.893Z,4.26
2018-02-01T01:58:25.868Z,4.24
2018-02-01T01:59:25.846Z,4.28
2018-02-01T02:00:25.836Z,4.24
2018-02-01T02:01:25.820Z,4.28
2018-02-01T02:02:25.788Z,4.25
2018-02-01T02:03:25.766Z,4.29
2018-02-01T02:04:25.746Z,4.25
2018-02-01T02:05:25.727Z,4.29
2018-02-01T02:06:25.703Z,4.29
2018-02-01T02:07:25.694Z,4.25
2018-02-01T02:08:25.665Z,4.26
2018-02-01T02:09:25.641Z,4.26
2018-02-01T02:10:25.620Z,4.22
2018-02-01T02:11:25.601Z,4.24
2018-02-01T02:12:25.582Z,4.28
2018-02-01T02:13:25.572Z,4.25
2018-02-01T02:14:25.543Z,4.25
2018-02-01T02:15:25.530Z,4.26
2018-02-01T02:16:25.496Z,4.25
2018-02-01T02:17:25.480Z,4.33
2018-02-01T02:18:25.468Z,4.26
2018-02-01T02:19:25.446Z,4.22
2018-02-01T02:20:25.430Z,4.28
2018-02-01T02:21:25.400Z,4.24
2018-02-01T02:22:25.372Z,4.29
2018-02-01T02:23:25.367Z,4.24
2018-02-01T02:24:25.354Z,4.28
2018-02-01T02:25:25.321Z,4.29
2018-02-01T02:26:25.307Z,4.29
2018-02-01T02:27:25.275Z,4.28
2018-02-01T02:28:25.249Z,4.26
2018-02-01T02:29:25.250Z,4.40
2018-02-01T02:30:25.220Z,4.34
2018-02-01T02:31:25.202Z,4.29
2018-02-01T02:32:25.176Z,4.37
2018-02-01T02:33:25.161Z,4.37
2018-02-01T02:34:25.137Z,4.29
2018-02-01T02:35:25.115Z,4.33
2018-02-01T02:36:25.091Z,4.37
2018-02-01T02:37:25.089Z,4.34
2018-02-01T02:38:25.060Z,4.42
2018-02-01T02:39:25.034Z,4.42
2018-02-01T02:40:25.025Z,4.37
2018-02-01T02:41:24.989Z,4.42
2018-02-01T02:42:24.983Z,4.40
2018-02-01T02:43:24.957Z,4.36
2018-02-01T02:44:24.938Z,4.39
2018-02-01T02:45:24.912Z,4.36
2018-02-01T02:46:24.899Z,4.39
2018-02-01T02:47:24.868Z,4.42
2018-02-01T02:48:24.864Z,4.37
2018-02-01T02:49:24.832Z,4.36
2018-02-01T02:50:24.822Z,4.44
2018-02-01T02:51:24.800Z,4.43
2018-02-01T02:52:24.784Z,4.37
2018-02-01T02:53:24.746Z,4.34
2018-02-01T02:54:24.726Z,4.37
2018-02-01T02:55:24.708Z,4.39
2018-02-01T02:56:24.692Z,4.42
2018-02-01T02:57:24.685Z,4.44
2018-02-01T02:58:24.656Z,4.40
2018-02-01T02:59:24.646Z,4.37
2018-02-01T03:00:24.605Z,4.42
2018-02-01T03:01:24.595Z,4.44
2018-02-01T03:02:24.576Z,4.40
2018-02-01T03:03:24.559Z,4.36
2018-02-01T03:04:24.556Z,4.37
2018-02-01T03:05:24.517Z,4.37
2018-02-01T03:06:24.492Z,4.40
2018-02-01T03:07:24.464Z,4.39
2018-02-01T03:08:24.454Z,4.37
2018-02-01T03:09:24.444Z,4.37
2018-02-01T03:10:24.425Z,4.44
2018-02-01T03:11:24.402Z,4.37
2018-02-01T03:12:24.361Z,4.33
2018-02-01T03:13:24.354Z,4.46
2018-02-01T03:14:24.319Z,4.32
2018-02-01T03:15:24.311Z,4.40
2018-02-01T03:16:25.053Z,4.33
2018-02-01T03:17:24.267Z,4.37
2018-02-01T03:18:24.276Z,4.37
2018-02-01T03:19:24.241Z,4.36
2018-02-01T03:20:24.202Z,4.42
2018-02-01T03:21:24.212Z,4.33
2018-02-01T03:22:24.165Z,4.37
2018-02-01T03:23:24.144Z,4.44
2018-02-01T03:24:24.129Z,4.50
2018-02-01T03:25:24.100Z,4.42
2018-02-01T03:26:24.093Z,4.28
2018-02-01T03:27:24.065Z,4.36
2018-02-01T03:28:24.049Z,4.36
2018-02-01T03:29:24.017Z,4.32
2018-02-01T03:30:23.998Z,4.32
2018-02-01T03:31:23.982Z,4.25
2018-02-01T03:32:23.966Z,4.34
2018-02-01T03:33:23.934Z,4.34
2018-02-01T03:34:23.931Z,4.32
2018-02-01T03:35:23.896Z,4.33
2018-02-01T03:36:23.938Z,4.32
2018-02-01T03:37:23.855Z,4.29
2018-02-01T03:38:23.840Z,4.22
2018-02-01T03:39:23.828Z,4.28
2018-02-01T03:40:23.800Z,4.24
2018-02-01T03:41:23.787Z,4.24
2018-02-01T03:42:23.748Z,4.25
2018-02-01T03:43:23.742Z,4.21
2018-02-01T03:44:23.731Z,4.21
2018-02-01T03:45:23.701Z,4.21
2018-02-01T03:46:23.673Z,4.19
2018-02-01T03:47:23.651Z,4.15
2018-02-01T03:48:23.660Z,4.10
2018-02-01T03:49:23.625Z,4.15
2018-02-01T03:50:23.599Z,4.18
2018-02-01T03:51:23.570Z,4.22
2018-02-01T03:52:23.551Z,4.08
2018-02-01T03:53:23.538Z,4.10
2018-02-01T03:54:23.514Z,4.19
2018-02-01T03:55:23.491Z,4.10
2018-02-01T03:56:23.472Z,4.12
2018-02-01T03:57:23.453Z,4.10
2018-02-01T03:58:23.435Z,4.07
2018-02-01T03:59:23.411Z,4.01
2018-02-01T04:00:23.392Z,4.15
2018-02-01T04:01:23.383Z,4.15
2018-02-01T04:02:23.348Z,4.12
2018-02-01T04:03:23.334Z,4.06
2018-02-01T04:04:23.329Z,4.04
2018-02-01T04:05:23.291Z,4.14
2018-02-01T04:06:23.279Z,4.01
2018-02-01T04:07:23.250Z,4.03
2018-02-01T04:08:23.240Z,4.14
2018-02-01T04:09:23.208Z,4.06
2018-02-01T04:10:23.182Z,4.01
2018-02-01T04:11:23.167Z,4.16
2018-02-01T04:12:23.142Z,4.15
2018-02-01T04:13:23.138Z,4.14
2018-02-01T04:14:23.110Z,4.16
2018-02-01T04:15:23.082Z,4.08
2018-02-01T04:16:23.062Z,4.12
2018-02-01T04:17:23.043Z,4.10
2018-02-01T04:18:23.027Z,4.10
2018-02-01T04:19:23.015Z,4.18
2018-02-01T04:20:22.989Z,4.16
2018-02-01T04:21:22.976Z,4.24
2018-02-01T04:22:22.954Z,4.15
2018-02-01T04:23:22.931Z,4.16
2018-02-01T04:24:22.905Z,4.21
2018-02-01T04:25:22.885Z,4.07
2018-02-01T04:26:22.857Z,4.14
2018-02-01T04:27:22.851Z,4.18
2018-02-01T04:28:22.818Z,4.10
2018-02-01T04:29:22.809Z,4.18
2018-02-01T04:30:22.787Z,4.12
2018-02-01T04:31:22.758Z,4.07
2018-02-01T04:32:22.745Z,4.19
2018-02-01T04:33:22.725Z,4.08
2018-02-01T04:34:22.705Z,4.12
2018-02-01T04:35:22.680Z,4.07
2018-02-01T04:36:22.667Z,4.12
2018-02-01T04:37:22.641Z,4.14
2018-02-01T04:38:22.625Z,4.14
2018-02-01T04:39:22.593Z,4.10
2018-02-01T04:40:22.578Z,3.98
2018-02-01T04:41:22.561Z,4.18
2018-02-01T04:42:22.547Z,4.06
2018-02-01T04:43:22.523Z,4.00
2018-02-01T04:44:22.502Z,3.94
2018-02-01T04:45:22.482Z,3.96
2018-02-01T04:46:22.452Z,3.92
2018-02-01T04:47:22.443Z,3.89
2018-02-01T04:48:22.414Z,4.04
2018-02-01T04:49:22.392Z,4.03
2018-02-01T04:50:22.382Z,3.92
2018-02-01T04:51:22.350Z,3.94
2018-02-01T04:52:22.327Z,3.96
2018-02-01T04:53:22.312Z,4.00
2018-02-01T04:54:22.333Z,3.94
2018-02-01T04:55:22.272Z,3.92
2018-02-01T04:56:22.260Z,3.92
2018-02-01T04:57:22.241Z,3.92
2018-02-01T04:58:22.212Z,3.97
2018-02-01T04:59:22.199Z,3.96
2018-02-01T05:00:22.180Z,3.92
2018-02-01T05:01:22.157Z,3.94
2018-02-01T05:02:22.132Z,3.92
2018-02-01T05:03:22.112Z,3.94
2018-02-01T05:04:22.087Z,3.89
2018-02-01T05:05:22.086Z,3.83
2018-02-01T05:06:22.051Z,3.83
2018-02-01T05:07:22.032Z,3.83
2018-02-01T05:08:22.003Z,3.85
2018-02-01T05:09:21.987Z,3.92
2018-02-01T05:10:21.977Z,3.85
2018-02-01T05:11:21.949Z,3.89
2018-02-01T05:12:21.920Z,3.89
2018-02-01T05:13:21.906Z,3.96
2018-02-01T05:14:21.880Z,3.94
2018-02-01T05:15:21.864Z,3.90
2018-02-01T05:16:21.844Z,3.89
2018-02-01T05:17:21.822Z,3.88
2018-02-01T05:18:21.810Z,3.85
2018-02-01T05:19:21.784Z,3.83
2018-02-01T05:20:21.758Z,3.88
2018-02-01T05:21:21.742Z,3.92
2018-02-01T05:22:21.729Z,3.94
2018-02-01T05:23:21.724Z,3.88
2018-02-01T05:24:21.685Z,3.89
2018-02-01T05:25:21.662Z,3.94
2018-02-01T05:26:21.660Z,3.88
2018-02-01T05:27:21.621Z,3.86
2018-02-01T05:28:21.605Z,3.80
2018-02-01T05:29:21.586Z,3.85
2018-02-01T05:30:21.559Z,3.86
2018-02-01T05:31:21.538Z,3.75
2018-02-01T05:32:21.522Z,3.80
2018-02-01T05:33:21.506Z,3.85
2018-02-01T05:34:21.505Z,3.86
2018-02-01T05:35:21.462Z,3.86
2018-02-01T05:36:21.443Z,3.83
2018-02-01T05:37:21.414Z,3.80
2018-02-01T05:38:21.394Z,3.72
2018-02-01T05:39:21.382Z,3.85
2018-02-01T05:40:21.356Z,3.72
2018-02-01T05:41:21.345Z,3.80
2018-02-01T05:42:21.309Z,3.68
2018-02-01T05:43:21.299Z,3.82
2018-02-01T05:44:21.270Z,3.75
2018-02-01T05:45:21.251Z,3.78
2018-02-01T05:46:21.229Z,3.85
2018-02-01T05:47:21.217Z,3.72
2018-02-01T05:48:21.190Z,3.80
2018-02-01T05:49:21.166Z,3.86
2018-02-01T05:50:21.153Z,3.78
2018-02-01T05:51:21.132Z,3.79
2018-02-01T05:52:21.108Z,3.82
2018-02-01T05:53:21.099Z,3.82
2018-02-01T05:54:21.074Z,3.71
2018-02-01T05:55:21.049Z,3.76
2018-02-01T05:56:21.029Z,3.79
2018-02-01T05:57:21.006Z,3.68
2018-02-01T05:58:21.012Z,3.64
2018-02-01T05:59:20.964Z,3.60
2018-02-01T06:00:20.955Z,3.60
2018-02-01T06:01:20.929Z,3.53
2018-02-01T06:02:20.905Z,3.52
2018-02-01T06:03:20.889Z,3.62
2018-02-01T06:04:20.875Z,3.62
2018-02-01T06:05:20.844Z,3.47
2018-02-01T06:06:20.825Z,3.58
2018-02-01T06:07:20.810Z,3.46
2018-02-01T06:08:20.787Z,3.49
2018-02-01T06:09:20.764Z,3.44
2018-02-01T06:10:20.739Z,3.49
2018-02-01T06:11:20.739Z,3.44
2018-02-01T06:12:20.702Z,3.46
2018-02-01T06:13:20.685Z,3.49
2018-02-01T06:14:20.663Z,3.44
2018-02-01T06:15:20.679Z,3.44
2018-02-01T06:16:20.631Z,3.44
2018-02-01T06:17:20.634Z,3.44
2018-02-01T06:18:20.580Z,3.54
2018-02-01T06:19:20.606Z,3.46
2018-02-01T06:20:20.549Z,3.46
2018-02-01T06:21:20.515Z,3.49
2018-02-01T06:22:20.496Z,3.49
2018-02-01T06:23:20.473Z,3.60
2018-02-01T06:24:20.464Z,3.57
2018-02-01T06:25:20.445Z,3.58
2018-02-01T06:26:20.419Z,3.47
2018-02-01T06:27:20.390Z,3.58
2018-02-01T06:28:20.377Z,3.60
2018-02-01T06:29:20.377Z,3.61
2018-02-01T06:30:20.332Z,3.58
2018-02-01T06:31:20.319Z,3.58
2018-02-01T06:32:20.296Z,3.54
2018-02-01T06:33:20.267Z,3.44
2018-02-01T06:34:20.267Z,3.57
2018-02-01T06:35:20.232Z,3.47
2018-02-01T06:36:20.240Z,3.46
2018-02-01T06:37:20.206Z,3.46
2018-02-01T06:38:20.174Z,3.47
2018-02-01T06:39:20.152Z,3.44
2018-02-01T06:40:20.133Z,3.49
2018-02-01T06:41:20.117Z,3.46
2018-02-01T06:42:20.120Z,3.58
2018-02-01T06:43:20.069Z,3.47
2018-02-01T06:44:20.053Z,3.43
2018-02-01T06:45:20.031Z,3.46
2018-02-01T06:46:19.999Z,3.53
2018-02-01T06:47:19.986Z,3.65
2018-02-01T06:48:19.973Z,3.54
2018-02-01T06:49:19.953Z,3.54
2018-02-01T06:50:19.928Z,3.68
2018-02-01T06:51:19.912Z,3.67
2018-02-01T06:52:19.902Z,3.60
2018-02-01T06:53:19.870Z,3.58
2018-02-01T06:54:19.848Z,3.65
2018-02-01T06:55:19.845Z,3.65
2018-02-01T06:56:19.809Z,3.67
2018-02-01T06:57:19.787Z,3.71
2018-02-01T06:58:19.762Z,3.70
2018-02-01T06:59:19.742Z,3.76
2018-02-01T07:00:19.723Z,3.75
2018-02-01T07:01:19.696Z,3.67
2018-02-01T07:02:19.687Z,3.71
2018-02-01T07:03:19.661Z,3.62
2018-02-01T07:04:28.429Z,3.65
2018-02-01T07:06:13.055Z,3.72
2018-02-01T07:07:13.029Z,3.72
2018-02-01T07:08:13.004Z,3.76
2018-02-01T07:09:12.988Z,3.78
2018-02-01T07:10:13.146Z,3.68
2018-02-01T07:11:12.982Z,3.65
2018-02-01T07:12:12.936Z,3.65
2018-02-01T07:13:12.908Z,3.75
2018-02-01T07:14:12.878Z,3.61
2018-02-01T07:15:12.856Z,3.67
2018-02-01T07:16:12.843Z,3.65
2018-02-01T07:17:12.818Z,3.71
2018-02-01T07:18:12.819Z,3.67
2018-02-01T07:19:12.773Z,3.71
2018-02-01T07:20:12.757Z,3.78
2018-02-01T07:21:12.731Z,3.65
2018-02-01T07:22:12.718Z,3.54
2018-02-01T07:23:12.696Z,3.54
2018-02-01T07:24:12.667Z,3.47
2018-02-01T07:25:12.658Z,3.46
2018-02-01T07:26:12.632Z,3.42
2018-02-01T07:27:12.610Z,3.34
2018-02-01T07:28:12.590Z,3.34
2018-02-01T07:29:12.562Z,3.23
2018-02-01T07:30:12.566Z,3.28
2018-02-01T07:31:12.539Z,3.25
2018-02-01T07:32:12.503Z,3.21
2018-02-01T07:33:12.494Z,3.31
2018-02-01T07:34:12.487Z,3.23
2018-02-01T07:35:12.458Z,3.20
2018-02-01T07:36:12.448Z,3.25
2018-02-01T07:37:12.410Z,3.16
2018-02-01T07:38:12.407Z,3.10
2018-02-01T07:39:12.365Z,3.13
2018-02-01T07:40:12.356Z,3.06
2018-02-01T07:41:12.327Z,3.09
2018-02-01T07:42:12.296Z,3.09
2018-02-01T07:43:12.278Z,3.06
2018-02-01T07:44:12.271Z,3.12
2018-02-01T07:45:12.262Z,3.07
2018-02-01T07:46:12.218Z,3.12
2018-02-01T07:47:12.217Z,3.10
2018-02-01T07:48:12.184Z,3.00
2018-02-01T07:49:12.163Z,3.02
2018-02-01T07:50:12.146Z,3.05
2018-02-01T07:51:12.121Z,3.02
2018-02-01T07:52:12.095Z,2.89
2018-02-01T07:53:12.083Z,2.88
2018-02-01T07:54:12.051Z,2.85
2018-02-01T07:55:12.035Z,2.87
2018-02-01T07:56:12.016Z,2.84
2018-02-01T07:57:11.996Z,2.76
2018-02-01T07:58:11.971Z,2.81
2018-02-01T07:59:11.942Z,2.70
2018-02-01T08:00:11.929Z,2.81
2018-02-01T08:01:11.904Z,2.69
2018-02-01T08:02:11.881Z,2.64
2018-02-01T08:03:11.872Z,2.61
2018-02-01T08:04:11.875Z,2.69
2018-02-01T08:05:11.837Z,2.58
2018-02-01T08:06:11.801Z,2.58
2018-02-01T08:07:11.797Z,2.69
2018-02-01T08:08:11.757Z,2.61
2018-02-01T08:09:11.744Z,2.74
2018-02-01T08:10:11.725Z,2.53
2018-02-01T08:11:11.738Z,2.55
2018-02-01T08:12:11.687Z,2.52
2018-02-01T08:13:11.661Z,2.49
2018-02-01T08:14:11.638Z,2.55
2018-02-01T08:15:11.617Z,2.56
2018-02-01T08:16:11.607Z,2.56
2018-02-01T08:17:11.578Z,2.59
2018-02-01T08:18:11.550Z,2.66
2018-02-01T08:19:11.533Z,2.64
2018-02-01T08:20:11.515Z,2.67
2018-02-01T08:21:11.496Z,2.71
2018-02-01T08:22:11.490Z,2.77
2018-02-01T08:23:11.451Z,2.84
2018-02-01T08:24:11.438Z,2.81
2018-02-01T08:25:11.403Z,2.89
2018-02-01T08:26:11.383Z,2.77
2018-02-01T08:27:11.397Z,2.74
2018-02-01T08:28:11.342Z,2.84
2018-02-01T08:29:11.323Z,2.98
2018-02-01T08:30:11.302Z,2.91
2018-02-01T08:31:11.282Z,2.88
2018-02-01T08:32:11.258Z,2.94
2018-02-01T08:33:11.245Z,2.97
2018-02-01T08:34:11.216Z,2.94
2018-02-01T08:35:11.209Z,3.06
2018-02-01T08:36:11.177Z,3.00
2018-02-01T08:37:11.149Z,3.05
2018-02-01T08:38:11.146Z,3.07
2018-02-01T08:39:11.151Z,3.12
2018-02-01T08:40:11.095Z,3.10
2018-02-01T08:41:11.067Z,3.20
2018-02-01T08:42:11.053Z,3.13
2018-02-01T08:43:11.028Z,3.09
2018-02-01T08:44:11.019Z,3.23
2018-02-01T08:45:10.993Z,3.27
2018-02-01T08:46:10.967Z,3.25
2018-02-01T08:47:10.952Z,3.30
2018-02-01T08:48:10.932Z,3.25
2018-02-01T08:49:10.899Z,3.25
2018-02-01T08:50:10.890Z,3.27
2018-02-01T08:51:10.862Z,3.24
2018-02-01T08:52:10.842Z,3.33
2018-02-01T08:53:10.839Z,3.34
2018-02-01T08:54:10.800Z,3.31
2018-02-01T08:55:10.777Z,3.31
2018-02-01T08:56:10.765Z,3.40
2018-02-01T08:57:10.735Z,3.36
2018-02-01T08:58:10.722Z,3.36
2018-02-01T08:59:10.697Z,3.30
2018-02-01T09:00:10.677Z,3.28
2018-02-01T09:01:10.655Z,3.36
2018-02-01T09:02:10.635Z,3.39
2018-02-01T09:03:10.610Z,3.39
2018-02-01T09:04:10.597Z,3.34
2018-02-01T09:05:10.582Z,3.49
2018-02-01T09:06:10.607Z,3.39
2018-02-01T09:07:10.537Z,3.43
2018-02-01T09:08:10.508Z,3.42
2018-02-01T09:09:10.485Z,3.49
2018-02-01T09:10:10.473Z,3.46
2018-02-01T09:11:10.453Z,3.60
2018-02-01T09:12:10.437Z,3.58
2018-02-01T09:13:10.402Z,3.46
2018-02-01T09:14:10.393Z,3.44
2018-02-01T09:15:10.360Z,3.49
2018-02-01T09:16:10.331Z,3.61
2018-02-01T09:17:10.325Z,3.65
2018-02-01T09:18:10.296Z,3.64
2018-02-01T09:19:10.286Z,3.72
2018-02-01T09:20:10.273Z,3.71
2018-02-01T09:21:10.242Z,3.75
2018-02-01T09:22:10.226Z,3.78
2018-02-01T09:23:10.200Z,3.71
2018-02-01T09:24:10.185Z,3.76
2018-02-01T09:25:10.161Z,3.78
2018-02-01T09:26:10.139Z,3.75
2018-02-01T09:27:10.113Z,3.80
2018-02-01T09:28:10.093Z,3.94
2018-02-01T09:29:10.071Z,3.96
2018-02-01T09:30:10.043Z,3.86
2018-02-01T09:31:10.036Z,3.96
2018-02-01T09:32:10.011Z,3.94
2018-02-01T09:33:09.994Z,3.90
2018-02-01T09:34:09.975Z,3.98
2018-02-01T09:35:09.953Z,4.08
2018-02-01T09:36:09.956Z,4.10
2018-02-01T09:37:09.909Z,4.15
2018-02-01T09:38:09.884Z,4.28
2018-02-01T09:39:09.875Z,4.26
2018-02-01T09:40:09.846Z,4.42
2018-02-01T09:41:09.826Z,4.50
2018-02-01T09:42:09.807Z,4.44
2018-02-01T09:43:09.794Z,4.54
2018-02-01T09:44:09.769Z,4.59
2018-02-01T09:45:09.750Z,4.77
2018-02-01T09:46:09.728Z,4.75
2018-02-01T09:47:09.705Z,4.72
2018-02-01T09:48:09.686Z,4.84
2018-02-01T09:49:09.680Z,4.69
2018-02-01T09:50:09.655Z,4.79
2018-02-01T09:51:09.622Z,4.73
2018-02-01T09:52:09.618Z,4.80
2018-02-01T09:53:09.583Z,4.77
2018-02-01T09:54:09.578Z,4.76
2018-02-01T09:55:09.545Z,4.88
2018-02-01T09:56:09.530Z,4.79
2018-02-01T09:57:09.529Z,4.65
2018-02-01T09:58:09.488Z,4.72
2018-02-01T09:59:09.486Z,4.61
2018-02-01T10:00:09.466Z,4.59
2018-02-01T10:01:09.439Z,4.59
2018-02-01T10:02:09.434Z,4.54
2018-02-01T10:03:09.398Z,4.51
2018-02-01T10:04:09.416Z,4.47
2018-02-01T10:05:09.350Z,4.51
2018-02-01T10:06:09.331Z,4.58
2018-02-01T10:07:09.306Z,4.72
2018-02-01T10:08:09.297Z,4.67
2018-02-01T10:09:09.281Z,4.75
2018-02-01T10:10:09.265Z,4.75
2018-02-01T10:11:09.226Z,4.73
2018-02-01T10:12:09.201Z,4.73
2018-02-01T10:13:09.189Z,4.80
2018-02-01T10:14:09.175Z,4.88
2018-02-01T10:15:09.146Z,4.98
2018-02-01T10:16:09.139Z,5.01
2018-02-01T10:17:09.106Z,5.02
2018-02-01T10:18:09.105Z,5.04
2018-02-01T10:19:09.074Z,5.09
2018-02-01T10:20:09.055Z,5.07
2018-02-01T10:21:09.019Z,5.02
2018-02-01T10:22:09.013Z,4.89
2018-02-01T10:23:08.994Z,4.79
2018-02-01T10:24:08.987Z,4.70
2018-02-01T10:25:08.953Z,4.57
2018-02-01T10:26:08.930Z,4.54
2018-02-01T10:27:08.923Z,4.47
2018-02-01T10:28:08.909Z,4.50
2018-02-01T10:29:08.871Z,4.37
2018-02-01T10:30:08.874Z,4.34
2018-02-01T10:31:08.829Z,4.34
2018-02-01T10:32:08.819Z,4.26
2018-02-01T10:33:08.817Z,4.25
2018-02-01T10:34:08.779Z,4.24
2018-02-01T10:35:08.822Z,4.22
2018-02-01T10:36:08.749Z,4.29
2018-02-01T10:37:08.724Z,4.43
2018-02-01T10:38:08.709Z,4.46
2018-02-01T10:39:08.686Z,4.72
2018-02-01T10:40:08.692Z,4.95
2018-02-01T10:41:08.645Z,5.13
2018-02-01T10:42:08.628Z,5.19
2018-02-01T10:43:08.663Z,5.14
2018-02-01T10:44:08.584Z,5.20
2018-02-01T10:45:08.572Z,5.52
2018-02-01T10:46:08.558Z,5.56
2018-02-01T10:47:08.520Z,5.34
2018-02-01T10:48:08.503Z,5.38
2018-02-01T10:49:08.486Z,5.28
2018-02-01T10:50:08.491Z,5.27
2018-02-01T10:51:08.446Z,5.12
2018-02-01T10:52:08.435Z,5.01
2018-02-01T10:53:08.404Z,4.94
2018-02-01T10:54:08.401Z,4.76
2018-02-01T10:55:08.369Z,4.73
2018-02-01T10:56:08.388Z,5.07
2018-02-01T10:57:08.331Z,5.34
2018-02-01T10:58:08.313Z,5.67
2018-02-01T10:59:08.288Z,5.88
2018-02-01T11:00:08.337Z,5.71
2018-02-01T11:01:08.255Z,6.06
2018-02-01T11:02:08.246Z,6.30
2018-02-01T11:03:08.224Z,6.46
2018-02-01T11:04:08.246Z,6.76
2018-02-01T11:05:08.185Z,7.12
2018-02-01T11:06:08.173Z,7.29
2018-02-01T11:07:08.160Z,7.07
2018-02-01T11:08:08.153Z,7.17
2018-02-01T11:09:08.132Z,7.45
2018-02-01T11:10:08.107Z,7.56
2018-02-01T11:11:08.147Z,7.12
2018-02-01T11:12:08.066Z,6.77
2018-02-01T11:13:08.067Z,6.99
2018-02-01T11:14:08.041Z,7.01
2018-02-01T11:15:08.044Z,6.83
2018-02-01T11:16:08.047Z,6.53
2018-02-01T11:17:07.990Z,6.32
2018-02-01T11:18:07.986Z,6.59
2018-02-01T11:19:07.968Z,7.12
2018-02-01T11:20:07.951Z,7.45
2018-02-01T11:21:07.948Z,7.53
2018-02-01T11:22:07.935Z,7.55
2018-02-01T11:23:07.919Z,7.40
2018-02-01T11:24:07.887Z,7.29
2018-02-01T11:25:07.894Z,6.97
2018-02-01T11:26:07.865Z,7.38
2018-02-01T11:27:07.851Z,7.74
2018-02-01T11:28:07.842Z,7.92
2018-02-01T11:29:07.807Z,7.96
2018-02-01T11:30:07.807Z,7.82
2018-02-01T11:31:07.795Z,7.99
2018-02-01T11:32:07.775Z,7.90
2018-02-01T11:33:07.759Z,7.77
2018-02-01T11:34:07.746Z,8.04
2018-02-01T11:35:07.746Z,7.81
2018-02-01T11:36:07.732Z,8.12
2018-02-01T11:37:07.704Z,8.07
2018-02-01T11:38:07.685Z,8.28
2018-02-01T11:39:07.672Z,8.12
2018-02-01T11:40:07.675Z,8.28
2018-02-01T11:41:07.650Z,8.25
2018-02-01T11:42:07.649Z,7.71
2018-02-01T11:43:07.649Z,7.84
2018-02-01T11:44:07.614Z,8.33
2018-02-01T11:45:07.607Z,8.78
2018-02-01T11:46:07.595Z,9.13
2018-02-01T11:47:07.585Z,8.87
2018-02-01T11:48:07.598Z,9.05
2018-02-01T11:49:07.563Z,9.23
2018-02-01T11:50:07.550Z,8.97
2018-02-01T11:51:07.534Z,8.66
2018-02-01T11:52:07.528Z,8.35
2018-02-01T11:53:07.504Z,8.54
2018-02-01T11:54:07.517Z,8.65
2018-02-01T11:55:07.552Z,8.76
2018-02-01T11:56:07.491Z,8.32
2018-02-01T11:57:07.466Z,7.71
2018-02-01T11:58:07.462Z,7.16
2018-02-01T11:59:07.440Z,6.89
2018-02-01T12:00:07.445Z,6.63
2018-02-01T12:01:07.421Z,6.35
2018-02-01T12:02:07.424Z,6.22
2018-02-01T12:03:07.386Z,6.22
2018-02-01T12:04:07.373Z,6.07
2018-02-01T12:05:07.359Z,5.81
2018-02-01T12:06:07.344Z,5.89
2018-02-01T12:07:07.335Z,5.73
2018-02-01T12:08:07.316Z,5.67
2018-02-01T12:09:07.341Z,5.64
2018-02-01T12:10:07.287Z,5.52
2018-02-01T12:11:07.268Z,5.45
2018-02-01T12:12:07.245Z,5.48
2018-02-01T12:13:07.239Z,5.31
2018-02-01T12:14:07.213Z,5.45
2018-02-01T12:15:07.200Z,5.38
2018-02-01T12:16:07.184Z,5.60
2018-02-01T12:17:07.217Z,5.67
2018-02-01T12:18:07.139Z,5.63
2018-02-01T12:19:07.127Z,5.71
2018-02-01T12:20:07.127Z,5.81
2018-02-01T12:21:07.129Z,5.83
2018-02-01T12:22:07.089Z,5.82
2018-02-01T12:23:07.060Z,5.83
2018-02-01T12:24:07.057Z,6.21
2018-02-01T12:25:07.022Z,6.71
2018-02-01T12:26:07.012Z,6.89
2018-02-01T12:27:07.008Z,7.20
2018-02-01T12:28:06.980Z,7.02
2018-02-01T12:29:06.955Z,7.23
2018-02-01T12:30:06.932Z,7.75
2018-02-01T12:31:06.932Z,7.84
2018-02-01T12:32:06.920Z,7.79
2018-02-01T12:33:06.904Z,7.89
2018-02-01T12:34:06.872Z,8.40
2018-02-01T12:35:06.853Z,8.60
2018-02-01T12:36:06.842Z,8.84
2018-02-01T12:37:06.824Z,8.86
2018-02-01T12:38:06.811Z,8.57
2018-02-01T12:39:06.817Z,8.50
2018-02-01T12:40:06.812Z,7.99
2018-02-01T12:41:06.783Z,7.92
2018-02-01T12:42:06.754Z,7.71
2018-02-01T12:43:06.738Z,7.42
2018-02-01T12:44:06.728Z,7.09
2018-02-01T12:45:06.709Z,6.84
2018-02-01T12:46:06.693Z,6.63
2018-02-01T12:47:06.684Z,6.43
2018-02-01T12:48:06.665Z,6.81
2018-02-01T12:49:06.687Z,6.83
2018-02-01T12:50:06.643Z,7.32
2018-02-01T12:51:06.629Z,7.24
2018-02-01T12:52:06.623Z,7.20
2018-02-01T12:53:06.598Z,7.31
2018-02-01T12:54:06.581Z,7.40
2018-02-01T12:55:06.562Z,7.52
2018-02-01T12:56:06.554Z,8.03
2018-02-01T12:57:06.547Z,8.21
2018-02-01T12:58:06.525Z,7.72
2018-02-01T12:59:06.506Z,7.53
2018-02-01T13:00:06.487Z,7.41
2018-02-01T13:01:06.516Z,7.72
2018-02-01T13:02:06.455Z,7.53
2018-02-01T13:03:06.443Z,7.58
2018-02-01T13:04:06.430Z,7.77
2018-02-01T13:05:06.472Z,7.93
2018-02-01T13:06:06.406Z,7.79
2018-02-01T13:07:06.395Z,7.72
2018-02-01T13:08:06.381Z,7.90
2018-02-01T13:09:06.366Z,7.89
2018-02-01T13:10:06.357Z,7.69
2018-02-01T13:11:06.334Z,7.62
2018-02-01T13:12:06.319Z,7.37
2018-02-01T13:13:06.366Z,7.09
2018-02-01T13:14:06.290Z,6.84
2018-02-01T13:15:06.303Z,6.53
2018-02-01T13:16:06.255Z,6.41
2018-02-01T13:17:06.242Z,6.58
2018-02-01T13:18:06.230Z,6.83
2018-02-01T13:19:06.227Z,6.62